Time;durP1;ratioP1;P1;durP2;ratioP2;P2;SDS_P1;SDS_P2;PMS_P1;PMS_P2;Temp;Humidity;BMP_temperature;BMP_pressure;BME280_temperature;BME280_humidity;BME280_pressure;Samples;Min_cycle;Max_cycle;Signal;HPM_P1;HPM_P2
2022/04/21 00:05:13;;;;;;;23.00;21.50;;;;;;;9.54;100.00;101405.24;1945412;71;39582;-78
2022/04/21 00:10:57;;;;;;;23.27;21.77;;;;;;;9.40;100.00;101403.20;1843796;75;86529;-79
2022/04/21 00:16:41;;;;;;;24.10;22.60;;;;;;;9.49;100.00;101387.75;1885540;73;86257;-79
2022/04/21 00:28:29;;;;;;;27.33;25.53;;;;;;;8.98;100.00;101381.75;1801503;77;85991;-80
2022/04/21 00:34:18;;;;;;;26.20;24.47;;;;;;;9.09;100.00;101382.13;1948398;71;39596;-73
2022/04/21 00:40:01;;;;;;;27.23;25.40;;;;;;;8.90;100.00;101373.88;1812045;78;86401;-80
2022/04/21 00:45:45;;;;;;;27.60;25.80;;;;;;;9.11;100.00;101369.41;1797866;78;86391;-80
2022/04/21 00:51:30;;;;;;;29.83;27.83;;;;;;;8.82;100.00;101363.27;1808536;77;86072;-79
2022/04/21 00:57:15;;;;;;;33.13;30.93;;;;;;;8.72;100.00;101368.72;1931414;72;39610;-74
2022/04/21 01:02:58;;;;;;;40.17;37.80;;;;;;;8.85;100.00;101362.77;1844058;76;86390;-74
2022/04/21 01:08:44;;;;;;;42.13;39.67;;;;;;;8.80;100.00;101356.34;1809722;78;85420;-79
2022/04/21 01:14:29;;;;;;;45.57;42.87;;;;;;;8.60;100.00;101350.04;1809941;77;85575;-79
2022/04/21 01:20:17;;;;;;;49.80;46.87;;;;;;;8.61;100.00;101348.38;1871486;73;86452;-73
2022/04/21 01:26:03;;;;;;;53.50;50.30;;;;;;;8.65;100.00;101354.22;1890502;74;85335;-79
2022/04/21 01:31:49;;;;;;;56.87;53.57;;;;;;;8.52;100.00;101344.94;1886861;74;86213;-73
2022/04/21 01:41:12;;;;;;;55.97;52.77;;;;;;;8.53;100.00;101328.62;1892273;74;86490;-80
2022/04/21 01:46:57;;;;;;;56.40;53.00;;;;;;;8.50;100.00;101326.38;1816619;76;86357;-79
2022/04/21 01:52:41;;;;;;;57.20;53.90;;;;;;;8.48;100.00;101322.48;1886944;73;85631;-79
2022/04/21 01:58:26;;;;;;;58.63;55.23;;;;;;;8.42;100.00;101323.53;1861021;76;86295;-73
2022/04/21 02:04:11;;;;;;;59.17;55.67;;;;;;;8.50;100.00;101318.91;1985264;71;39515;-74
2022/04/21 02:09:54;;;;;;;60.57;56.80;;;;;;;8.59;100.00;101310.44;1845447;76;85748;-78
2022/04/21 02:15:38;;;;;;;63.77;59.87;;;;;;;8.32;100.00;101304.57;1874854;73;86001;-72
2022/04/21 02:21:23;;;;;;;64.37;60.50;;;;;;;8.20;100.00;101295.00;1936857;71;85330;-73
2022/04/21 02:27:08;;;;;;;63.27;59.57;;;;;;;8.12;100.00;101295.46;1982312;71;39778;-72
2022/04/21 02:32:52;;;;;;;62.83;59.27;;;;;;;8.10;100.00;101295.71;1856671;76;86277;-74
2022/04/21 02:38:36;;;;;;;64.87;60.80;;;;;;;8.07;100.00;101289.31;1837794;75;86031;-74
2022/04/21 02:44:20;;;;;;;67.90;63.90;;;;;;;8.00;100.00;101293.38;1913438;74;86671;-78
2022/04/21 02:50:07;;;;;;;65.97;61.93;;;;;;;8.09;100.00;101286.27;1978854;71;39548;-80
2022/04/21 03:01:52;;;;;;;64.50;60.40;;;;;;;7.96;100.00;101286.69;1859777;76;86112;-79
2022/04/21 03:07:36;;;;;;;66.00;61.60;;;;;;;7.89;100.00;101286.87;1882159;74;86377;-74
2022/04/21 03:13:22;;;;;;;65.63;61.33;;;;;;;7.85;100.00;101286.25;1910230;72;86488;-73
2022/04/21 03:19:06;;;;;;;65.63;61.50;;;;;;;7.90;100.00;101287.70;1982462;71;39542;-73
2022/04/21 03:24:50;;;;;;;65.33;61.10;;;;;;;7.85;100.00;101289.02;1853381;76;85397;-79
2022/04/21 03:30:36;;;;;;;64.87;60.70;;;;;;;7.96;100.00;101284.73;1880939;75;86271;-80
2022/04/21 03:36:21;;;;;;;66.23;61.83;;;;;;;7.81;100.00;101286.47;1913379;72;85402;-74
2022/04/21 03:42:07;;;;;;;65.20;61.00;;;;;;;7.70;100.00;101287.70;1926012;71;39660;-72
2022/04/21 03:47:58;;;;;;;63.70;59.33;;;;;;;7.59;100.00;101283.69;1875191;74;85527;-73
2022/04/21 03:53:42;;;;;;;65.60;61.13;;;;;;;7.55;100.00;101284.75;1873504;75;85368;-79
2022/04/21 03:59:26;;;;;;;62.53;58.23;;;;;;;7.47;100.00;101276.05;1858463;75;86546;-79
2022/04/21 04:05:11;;;;;;;64.87;60.33;;;;;;;7.63;100.00;101273.79;1986731;71;39616;-79
2022/04/21 04:10:55;;;;;;;67.67;62.57;;;;;;;7.76;100.00;101275.64;1816977;76;86178;-74
2022/04/21 04:16:40;;;;;;;62.50;58.37;;;;;;;7.56;100.00;101276.75;1869637;75;85603;-73
2022/04/21 04:22:24;;;;;;;64.83;60.23;;;;;;;7.68;100.00;101272.48;1806535;77;86288;-80
2022/04/21 04:28:09;;;;;;;69.33;64.63;;;;;;;7.49;100.00;101278.00;1948360;71;39564;-80
2022/04/21 04:33:55;;;;;;;65.93;61.40;;;;;;;7.46;100.00;101271.61;1831811;76;86426;-78
2022/04/21 04:39:39;;;;;;;67.13;62.63;;;;;;;7.42;100.00;101274.59;1868938;75;85426;-79
2022/04/21 04:51:26;;;;;;;66.67;61.77;;;;;;;7.28;100.00;101261.13;1807426;77;86099;-73
2022/04/21 05:00:19;;;;;;;70.67;65.73;;;;;;;7.43;100.00;101267.98;1897661;75;85978;-79
2022/04/21 05:02:49;;;;;;;67.70;62.80;;;;;;;7.16;100.00;101281.66;1828667;76;934747;-79
2022/04/21 05:05:19;;;;;;;65.40;60.33;;;;;;;6.94;100.00;101281.58;1818472;77;938835;-78
2022/04/21 05:07:50;;;;;;;67.63;62.50;;;;;;;7.01;100.00;101281.42;1756181;80;936850;-78
2022/04/21 05:13:34;;;;;;;65.43;60.07;;;;;;;7.06;100.00;101270.46;1880571;75;86635;-73
2022/04/21 05:19:21;;;;;;;67.37;62.27;;;;;;;7.04;100.00;101267.10;1906549;73;85309;-78
2022/04/21 05:25:13;;;;;;;66.37;61.30;;;;;;;7.35;100.00;101265.11;1985694;71;39509;-78
2022/04/21 05:31:01;;;;;;;69.03;63.43;;;;;;;7.43;100.00;101262.45;1830672;76;86580;-73
2022/04/21 05:36:47;;;;;;;69.03;63.93;;;;;;;7.36;100.00;101261.23;1798917;78;86462;-77
2022/04/21 05:42:35;;;;;;;68.93;63.67;;;;;;;7.36;100.00;101265.38;1824788;76;85995;-80
2022/04/21 05:48:25;;;;;;;66.47;61.17;;;;;;;7.53;100.00;101267.56;1916286;72;85361;-74
2022/04/21 05:54:14;;;;;;;71.83;65.87;;;;;;;7.58;100.00;101271.79;1984865;71;39572;-80
2022/04/21 05:59:56;;;;;;;72.03;66.40;;;;;;;8.03;100.00;101264.65;1890397;74;86104;-78
2022/04/21 06:05:41;;;;;;;72.17;66.87;;;;;;;7.89;100.00;101273.58;1880700;74;86079;-78
2022/04/21 06:11:28;;;;;;;74.00;67.87;;;;;;;8.03;100.00;101263.80;1805522;78;86730;-79
2022/04/21 06:17:11;;;;;;;73.53;67.80;;;;;;;8.39;100.00;101266.44;1941072;71;39702;-74
2022/04/21 06:22:55;;;;;;;78.17;71.90;;;;;;;8.59;100.00;101261.14;1827119;76;86450;-79
2022/04/21 06:28:41;;;;;;;76.23;69.80;;;;;;;8.77;100.00;101256.58;1909263;73;86679;-78
2022/04/21 06:34:29;;;;;;;83.07;76.07;;;;;;;9.50;100.00;101254.91;1808383;77;86677;-73
2022/04/21 06:40:14;;;;;;;80.83;74.13;;;;;;;9.89;100.00;101249.84;1975960;71;39528;-73
2022/04/21 06:52:03;;;;;;;84.80;77.53;;;;;;;10.18;100.00;101252.50;1977392;70;39686;-80
2022/04/21 06:57:47;;;;;;;87.60;80.57;;;;;;;10.39;100.00;101247.28;1909635;74;86399;-74
2022/04/21 07:00:19;;;;;;;87.13;80.27;;;;;;;10.40;100.00;101256.42;1852377;75;938849;-74
2022/04/21 07:06:03;;;;;;;85.00;77.70;;;;;;;10.65;100.00;101251.48;1975289;71;39581;-75
2022/04/21 07:11:47;;;;;;;86.50;79.30;;;;;;;10.86;100.00;101244.28;1896386;74;86625;-74
2022/04/21 07:17:32;;;;;;;87.80;80.90;;;;;;;11.17;100.00;101247.02;1810740;77;86295;-74
2022/04/21 07:23:16;;;;;;;86.90;80.23;;;;;;;11.41;100.00;101239.78;1912554;72;86259;-75
2022/04/21 07:29:01;;;;;;;87.17;80.70;;;;;;;11.67;100.00;101238.60;1804634;78;86070;-75
2022/04/21 07:34:45;;;;;;;83.17;76.70;;;;;;;11.95;100.00;101237.68;1796450;78;86295;-77
2022/04/21 07:40:32;;;;;;;81.97;75.57;;;;;;;12.22;100.00;101236.17;1851060;76;86289;-75
2022/04/21 07:46:16;;;;;;;77.63;71.43;;;;;;;12.60;100.00;101239.27;1912492;72;85386;-77
2022/04/21 07:58:02;;;;;;;71.77;66.67;;;;;;;13.23;100.00;101231.80;1891903;74;86568;-78
2022/04/21 08:03:46;;;;;;;71.63;66.03;;;;;;;13.62;100.00;101226.09;1809245;78;86338;-74
2022/04/21 08:09:29;;;;;;;65.27;60.27;;;;;;;13.74;100.00;101215.89;1808380;77;85568;-75
2022/04/21 08:15:15;;;;;;;63.67;58.97;;;;;;;14.05;100.00;101227.80;1984374;71;40405;-78
2022/04/21 08:20:59;;;;;;;61.70;56.47;;;;;;;14.34;100.00;101226.27;1834285;76;86274;-76
2022/04/21 08:32:47;;;;;;;56.40;52.40;;;;;;;15.13;100.00;101224.50;1801268;78;85746;-75
2022/04/21 08:38:31;;;;;;;54.33;50.17;;;;;;;15.21;100.00;101228.55;1810579;77;86545;-75
2022/04/21 08:44:19;;;;;;;47.47;43.97;;;;;;;15.36;100.00;101224.09;1949228;73;86406;-76
2022/04/21 08:50:09;;;;;;;45.97;42.13;;;;;;;15.68;100.00;101224.62;1982174;71;46425;-75
2022/04/21 08:55:55;;;;;;;44.33;41.03;;;;;;;15.84;100.00;101226.80;1858113;76;86765;-76
2022/04/21 09:01:40;;;;;;;39.73;36.40;;;;;;;15.95;100.00;101223.23;1884552;74;85687;-74
2022/04/21 09:07:24;;;;;;;39.27;36.27;;;;;;;16.08;100.00;101222.39;1887173;74;85628;-73
2022/04/21 09:13:36;;;;;;;37.10;34.20;;;;;;;16.31;100.00;101222.70;1857945;76;86222;-75
2022/04/21 09:19:22;;;;;;;33.33;30.53;;;;;;;16.58;100.00;101213.99;1934545;72;86625;-74
2022/04/21 09:25:09;;;;;;;30.67;28.27;;;;;;;16.30;100.00;101211.82;1985723;71;39713;-77
2022/04/21 09:31:00;;;;;;;31.07;28.33;;;;;;;16.91;100.00;101204.19;1845753;76;86284;-75
2022/04/21 09:36:47;;;;;;;28.10;25.70;;;;;;;16.73;100.00;101199.02;1807301;78;86000;-75
2022/04/21 09:42:32;;;;;;;27.00;24.80;;;;;;;16.82;100.00;101199.09;1874630;75;86346;-75
2022/04/21 09:48:26;;;;;;;24.67;22.67;;;;;;;17.00;100.00;101198.06;1915737;74;86187;-76
2022/04/21 09:54:11;;;;;;;22.93;21.23;;;;;;;17.17;100.00;101194.54;1957140;71;39767;-75
2022/04/21 09:59:54;;;;;;;22.00;20.00;;;;;;;17.53;100.00;101185.41;1836488;75;86299;-76
2022/04/21 10:05:40;;;;;;;19.53;18.13;;;;;;;17.43;100.00;101177.26;1886486;73;86625;-76
2022/04/21 10:11:27;;;;;;;18.40;17.10;;;;;;;17.61;100.00;101177.62;1805415;77;86174;-75
2022/04/21 10:17:13;;;;;;;17.37;16.17;;;;;;;17.82;100.00;101179.27;1984603;71;39802;-74
2022/04/21 10:23:02;;;;;;;17.47;16.17;;;;;;;17.77;100.00;101170.15;1827753;75;86342;-74
2022/04/21 10:28:57;;;;;;;15.73;14.43;;;;;;;18.00;100.00;101179.58;1982243;72;85534;-74
2022/04/21 10:34:56;;;;;;;15.70;14.60;;;;;;;17.87;100.00;101176.88;1835721;76;86251;-74
2022/04/21 10:44:08;;;;;;;16.60;15.40;;;;;;;17.80;100.00;101164.70;1826480;76;86405;-74
2022/04/21 10:49:59;;;;;;;16.93;15.67;;;;;;;18.00;100.00;101165.52;1844778;76;86596;-75
2022/04/21 10:59:04;;;;;;;17.17;15.77;;;;;;;17.95;100.00;101171.86;1983843;71;42765;-74
2022/04/21 11:04:57;;;;;;;15.53;14.50;;;;;;;18.14;100.00;101169.60;1909895;74;86852;-75
2022/04/21 11:10:43;;;;;;;16.20;15.10;;;;;;;18.09;100.00;101171.16;1886641;73;85317;-74
2022/04/21 11:16:49;;;;;;;17.47;16.07;;;;;;;18.05;100.00;101172.97;1767391;79;85953;-76
2022/04/21 11:22:53;;;;;;;18.00;16.57;;;;;;;18.16;100.00;101169.51;1848272;76;86525;-74
2022/04/21 11:28:39;;;;;;;16.50;15.03;;;;;;;18.37;100.00;101158.44;1888445;74;86378;-73
2022/04/21 11:34:24;;;;;;;15.10;14.10;;;;;;;18.48;100.00;101152.72;1924920;73;86241;-75
2022/04/21 11:40:24;;;;;;;15.57;14.57;;;;;;;18.40;100.00;101151.34;1941195;71;39633;-74
2022/04/21 11:46:12;;;;;;;16.47;15.37;;;;;;;18.41;100.00;101141.15;1985662;70;39828;-75
2022/04/21 11:51:56;;;;;;;15.87;14.50;;;;;;;18.33;100.00;101133.55;1972846;71;86040;-73
2022/04/21 11:57:43;;;;;;;16.80;15.77;;;;;;;18.38;100.00;101130.57;1886116;73;86153;-74
2022/04/21 12:09:34;;;;;;;18.00;16.60;;;;;;;18.64;100.00;101121.58;1809144;77;85434;-73
2022/04/21 12:15:29;;;;;;;18.23;16.67;;;;;;;18.63;100.00;101101.63;1948180;72;85467;-75
2022/04/21 12:21:20;;;;;;;21.77;20.23;;;;;;;18.82;100.00;101118.16;1926463;73;86093;-75
2022/04/21 12:27:04;;;;;;;17.27;16.20;;;;;;;18.73;100.00;101113.12;1877914;75;86038;-75
2022/04/21 12:32:50;;;;;;;17.47;16.17;;;;;;;18.80;100.00;101116.81;1888361;74;86512;-74
2022/04/21 12:38:53;;;;;;;17.10;16.00;;;;;;;19.00;100.00;101116.93;1794102;78;86497;-74
2022/04/21 12:44:40;;;;;;;16.50;15.50;;;;;;;18.88;100.00;101110.34;1884875;74;86145;-73
2022/04/21 12:50:30;;;;;;;16.00;14.97;;;;;;;18.93;100.00;101103.12;1868741;76;86269;-76
2022/04/21 12:59:20;;;;;;;15.70;14.67;;;;;;;18.81;100.00;101092.57;1897760;75;86247;-76
2022/04/21 13:05:07;;;;;;;15.10;14.20;;;;;;;19.07;100.00;101093.33;1984342;71;39770;-73
2022/04/21 13:10:52;;;;;;;15.87;14.87;;;;;;;19.03;100.00;101083.08;1844810;76;86180;-75
2022/04/21 13:16:35;;;;;;;15.73;14.43;;;;;;;19.00;100.00;101078.92;1893153;75;86484;-75
2022/04/21 13:22:19;;;;;;;15.90;14.63;;;;;;;19.07;100.00;101103.19;1912211;74;86171;-74
2022/04/21 13:28:03;;;;;;;15.27;14.27;;;;;;;19.07;100.00;101074.20;1895164;74;86375;-73
2022/04/21 13:33:47;;;;;;;15.10;14.20;;;;;;;19.17;100.00;101061.13;1885032;74;86741;-75
2022/04/21 13:39:34;;;;;;;15.93;14.93;;;;;;;19.12;100.00;101067.55;1808818;77;86294;-73
2022/04/21 13:45:19;;;;;;;16.27;15.17;;;;;;;19.13;100.00;101057.92;1928080;73;86637;-76
2022/04/21 13:51:04;;;;;;;16.27;15.17;;;;;;;19.24;100.00;101050.77;1985469;71;39840;-75
2022/04/21 13:56:48;;;;;;;15.43;14.33;;;;;;;19.13;100.00;101050.30;1904147;75;86289;-75
2022/04/21 14:02:31;;;;;;;14.80;13.80;;;;;;;19.37;100.00;101058.98;1806891;77;85157;-76
2022/04/21 14:08:15;;;;;;;15.07;14.13;;;;;;;19.25;100.00;101053.25;1975893;70;39627;-77
2022/04/21 14:13:59;;;;;;;15.43;14.30;;;;;;;19.18;100.00;101041.67;1847600;76;86500;-76
2022/04/21 14:19:47;;;;;;;14.90;14.00;;;;;;;19.37;100.00;101036.45;1796661;78;86218;-74
2022/04/21 14:25:31;;;;;;;14.30;13.40;;;;;;;19.12;100.00;101040.80;1806058;77;86374;-75
2022/04/21 14:31:15;;;;;;;13.87;13.07;;;;;;;19.16;100.00;101033.33;1982298;71;39889;-76
2022/04/21 14:37:00;;;;;;;14.33;13.43;;;;;;;19.24;100.00;101026.83;1847221;76;85435;-75
2022/04/21 14:48:47;;;;;;;14.03;13.13;;;;;;;19.07;100.00;101022.11;1802712;78;86237;-76
2022/04/21 14:54:31;;;;;;;13.80;13.00;;;;;;;19.10;100.00;101022.83;1804808;77;86343;-76
2022/04/21 15:00:16;;;;;;;13.40;12.60;;;;;;;19.08;100.00;101024.56;1973347;71;39812;-76
2022/04/21 15:06:00;;;;;;;14.37;13.57;;;;;;;19.11;100.00;101014.63;1984839;72;86328;-75
2022/04/21 15:11:45;;;;;;;12.43;11.83;;;;;;;18.97;100.00;101022.47;1809039;78;86090;-75
2022/04/21 15:17:30;;;;;;;12.57;11.77;;;;;;;18.82;100.00;101026.69;1856848;76;86058;-75
2022/04/21 15:23:14;;;;;;;12.17;11.33;;;;;;;18.89;100.00;101023.33;1982361;71;39658;-74
2022/04/21 15:28:58;;;;;;;12.97;12.07;;;;;;;18.69;100.00;101033.92;1845976;76;86674;-75
2022/04/21 15:34:43;;;;;;;12.50;11.90;;;;;;;18.55;100.00;101029.89;1888104;74;85445;-76
2022/04/21 15:40:27;;;;;;;12.60;11.90;;;;;;;18.46;100.00;101027.64;1805872;77;86327;-75
2022/04/21 15:46:14;;;;;;;12.37;11.57;;;;;;;18.47;100.00;101037.74;1949558;71;39550;-75
2022/04/21 15:51:59;;;;;;;12.17;11.57;;;;;;;18.38;100.00;101029.89;1842543;76;85654;-74
2022/04/21 16:03:45;;;;;;;11.90;11.30;;;;;;;18.24;100.00;101023.04;1808318;78;86744;-75
2022/04/21 16:09:30;;;;;;;12.13;11.50;;;;;;;18.30;100.00;101027.34;1808714;77;86850;-78
2022/04/21 16:15:14;;;;;;;12.30;11.50;;;;;;;18.42;100.00;101023.27;1982361;71;39629;-77
2022/04/21 16:20:59;;;;;;;11.43;10.93;;;;;;;18.22;100.00;101018.34;1845220;76;86225;-79
2022/04/21 16:26:46;;;;;;;11.37;10.73;;;;;;;18.23;100.00;101024.80;1808612;78;86481;-77
2022/04/21 16:32:30;;;;;;;11.90;11.10;;;;;;;18.20;100.00;101016.43;1803493;77;86216;-79
2022/04/21 16:38:14;;;;;;;12.10;11.37;;;;;;;18.01;100.00;101015.96;1982513;71;39720;-78
2022/04/21 16:43:59;;;;;;;11.83;11.23;;;;;;;17.88;100.00;101018.36;1831222;75;86629;-77
2022/04/21 16:49:45;;;;;;;11.80;11.20;;;;;;;17.68;100.00;101023.45;1915731;74;86157;-78
2022/04/21 16:55:27;;;;;;;11.40;10.80;;;;;;;17.60;100.00;101015.02;1802127;77;86700;-78
2022/04/21 17:07:12;;;;;;;12.33;11.57;;;;;;;17.50;100.00;101022.33;1982961;71;39531;-74
2022/04/21 17:12:56;;;;;;;12.37;11.57;;;;;;;17.33;100.00;101023.70;1873973;76;86328;-74
2022/04/21 17:18:41;;;;;;;11.20;10.70;;;;;;;17.23;100.00;101024.82;1871968;75;86361;-73
2022/04/21 17:24:29;;;;;;;11.33;10.80;;;;;;;17.10;100.00;101026.59;1874966;75;86011;-74
2022/04/21 17:30:13;;;;;;;11.60;10.90;;;;;;;17.34;100.00;101023.35;1923537;71;39557;-75
2022/04/21 17:35:58;;;;;;;11.60;11.00;;;;;;;16.93;100.00;101028.50;1838079;76;85912;-74
2022/04/21 17:41:42;;;;;;;12.27;11.47;;;;;;;16.80;100.00;101023.24;1889744;73;85426;-75
2022/04/21 17:47:28;;;;;;;12.40;11.70;;;;;;;16.72;100.00;101026.84;1867447;76;86335;-76
2022/04/21 17:56:20;;;;;;;12.40;11.70;;;;;;;16.49;100.00;101027.98;1901527;74;86373;-75
2022/04/21 18:02:07;;;;;;;11.73;10.97;;;;;;;16.42;100.00;101026.21;1988151;71;39667;-73
2022/04/21 18:07:51;;;;;;;11.57;10.90;;;;;;;16.22;100.00;101024.17;1844093;76;86165;-73
2022/04/21 18:13:44;;;;;;;11.30;10.70;;;;;;;16.18;100.00;101025.12;1891913;74;86425;-76
2022/04/21 18:19:25;;;;;;;11.13;10.57;;;;;;;16.04;100.00;101033.61;1859247;76;86475;-72
2022/04/21 18:25:10;;;;;;;11.30;10.60;;;;;;;15.86;100.00;101030.41;1976055;71;39516;-72
2022/04/21 18:30:55;;;;;;;10.90;10.40;;;;;;;15.71;100.00;101039.14;1825495;76;86331;-75
2022/04/21 18:36:40;;;;;;;11.63;11.03;;;;;;;15.58;100.00;101045.59;1879623;73;85404;-79
2022/04/21 18:42:23;;;;;;;11.60;10.80;;;;;;;15.40;100.00;101045.98;1946341;73;86719;-75
2022/04/21 18:48:09;;;;;;;11.60;10.80;;;;;;;15.23;100.00;101054.19;1986543;71;39607;-80
2022/04/21 18:53:53;;;;;;;12.07;11.13;;;;;;;14.98;100.00;101065.30;1814371;76;85421;-79
2022/04/21 18:59:36;;;;;;;12.57;11.67;;;;;;;14.79;100.00;101069.59;1908973;74;85294;-79
2022/04/21 19:05:25;;;;;;;12.63;11.73;;;;;;;14.61;100.00;101080.25;1923174;72;85354;-78
2022/04/21 19:11:09;;;;;;;14.30;13.17;;;;;;;14.50;100.00;101097.76;1982165;71;39767;-69
2022/04/21 19:16:53;;;;;;;13.30;12.43;;;;;;;14.50;100.00;101099.75;1865965;76;86440;-70
2022/04/21 19:22:37;;;;;;;14.33;13.30;;;;;;;14.47;100.00;101101.17;1872911;75;86707;-67
2022/04/21 19:28:27;;;;;;;13.57;12.53;;;;;;;14.40;100.00;101107.73;1906679;72;86136;-69
2022/04/21 19:34:12;;;;;;;14.33;13.43;;;;;;;14.14;100.00;101115.66;1929273;71;40381;-71
2022/04/21 19:39:57;;;;;;;14.07;13.17;;;;;;;14.21;100.00;101114.42;1880318;74;86434;-68
2022/04/21 19:45:42;;;;;;;14.13;13.13;;;;;;;14.12;100.00;101117.06;1873498;75;86600;-70
2022/04/21 19:51:26;;;;;;;14.20;13.40;;;;;;;14.04;100.00;101107.41;1809707;77;86499;-70
2022/04/21 19:57:13;;;;;;;13.80;12.90;;;;;;;13.93;100.00;101114.30;1955289;72;39517;-68
2022/04/21 20:02:55;;;;;;;14.60;13.50;;;;;;;13.87;100.00;101117.44;1851901;76;85689;-69
2022/04/21 20:08:55;;;;;;;14.80;13.73;;;;;;;13.71;100.00;101114.59;1883252;74;85584;-67
2022/04/21 20:14:42;;;;;;;15.17;14.07;;;;;;;13.66;100.00;101117.73;1885516;74;86422;-67
2022/04/21 20:26:39;;;;;;;16.20;15.20;;;;;;;13.67;100.00;101122.19;1863060;76;86381;-68
2022/04/21 20:32:24;;;;;;;15.60;14.50;;;;;;;13.68;100.00;101116.05;1927576;73;86036;-69
2022/04/21 20:38:13;;;;;;;14.97;14.03;;;;;;;13.50;100.00;101116.83;1973457;71;39524;-69
2022/04/21 20:43:58;;;;;;;15.40;14.50;;;;;;;13.48;100.00;101118.52;1834457;76;86144;-69
2022/04/21 20:49:44;;;;;;;15.73;14.63;;;;;;;13.43;100.00;101119.99;1887148;73;86283;-70
2022/04/21 20:55:33;;;;;;;15.07;14.17;;;;;;;13.33;100.00;101119.27;1818508;77;86597;-68
2022/04/21 21:01:16;;;;;;;15.67;14.77;;;;;;;13.07;100.00;101114.52;1948788;73;86722;-70
2022/04/21 21:07:08;;;;;;;16.33;14.97;;;;;;;13.10;100.00;101110.59;1983136;70;85915;-69
2022/04/21 21:12:55;;;;;;;16.27;15.17;;;;;;;12.99;100.00;101107.63;1848539;76;86647;-71
2022/04/21 21:18:41;;;;;;;15.00;14.10;;;;;;;12.86;100.00;101111.11;1874414;74;86135;-70
2022/04/21 21:24:26;;;;;;;14.27;13.40;;;;;;;12.79;100.00;101108.65;1865536;75;86587;-71
2022/04/21 21:30:12;;;;;;;13.67;12.87;;;;;;;12.76;100.00;101107.85;1983177;71;39672;-69
2022/04/21 21:35:57;;;;;;;14.30;13.40;;;;;;;12.68;100.00;101122.42;1828047;75;86631;-71
2022/04/21 21:41:42;;;;;;;13.67;12.77;;;;;;;12.51;100.00;101118.40;1914919;74;86085;-71
2022/04/21 21:47:26;;;;;;;13.93;12.93;;;;;;;12.39;100.00;101121.56;1869780;74;86113;-69
2022/04/21 21:53:11;;;;;;;14.17;13.20;;;;;;;12.40;100.00;101121.01;1985467;71;39445;-70
2022/04/21 22:02:07;;;;;;;15.10;14.20;;;;;;;11.96;100.00;101107.11;1941569;71;39555;-69
2022/04/21 22:07:52;;;;;;;14.73;13.83;;;;;;;11.86;100.00;101103.27;1842450;76;86522;-72
2022/04/21 22:13:36;;;;;;;14.63;13.83;;;;;;;12.02;100.00;101108.20;1886062;75;86087;-69
2022/04/21 22:19:23;;;;;;;15.43;14.53;;;;;;;11.85;100.00;101104.38;1918492;74;86664;-72
2022/04/21 22:25:08;;;;;;;15.67;14.73;;;;;;;11.76;100.00;101110.86;1977539;71;39568;-69
2022/04/21 22:30:51;;;;;;;14.80;13.90;;;;;;;11.68;100.00;101105.88;1835728;76;86664;-71
2022/04/21 22:36:35;;;;;;;16.40;15.20;;;;;;;11.65;100.00;101097.52;1886452;75;86272;-69
2022/04/21 22:42:20;;;;;;;16.33;15.27;;;;;;;11.47;100.00;101089.81;1913135;72;86227;-71
2022/04/21 22:48:09;;;;;;;17.30;16.17;;;;;;;11.52;100.00;101082.84;1926449;72;39551;-69
2022/04/21 22:53:53;;;;;;;16.17;15.27;;;;;;;11.54;100.00;101079.23;1845630;76;86440;-69
2022/04/21 22:59:36;;;;;;;17.10;16.10;;;;;;;11.51;100.00;101082.56;1890955;75;86143;-72
2022/04/21 23:05:20;;;;;;;17.30;16.27;;;;;;;11.23;100.00;101072.97;1911745;72;85554;-72
2022/04/21 23:17:20;;;;;;;19.10;17.90;;;;;;;11.04;100.00;101065.55;1919085;74;85380;-69
2022/04/21 23:23:04;;;;;;;18.57;17.47;;;;;;;10.95;100.00;101061.93;1976719;71;39621;-71
2022/04/21 23:28:49;;;;;;;19.20;17.97;;;;;;;11.09;100.00;101059.39;1875861;74;86680;-69
2022/04/21 23:34:34;;;;;;;20.47;19.10;;;;;;;10.95;100.00;101051.39;1891945;75;86364;-70
2022/04/21 23:40:19;;;;;;;21.23;19.83;;;;;;;10.95;100.00;101056.95;1936242;73;86132;-69
2022/04/21 23:46:03;;;;;;;21.90;20.40;;;;;;;10.66;100.00;101055.34;1938152;71;39507;-69
2022/04/21 23:51:48;;;;;;;22.10;20.70;;;;;;;10.70;100.00;101053.66;1887323;74;86503;-72
2022/04/21 23:57:32;;;;;;;21.53;20.23;;;;;;;10.72;100.00;101047.84;1832226;78;85409;-69
